Springtown, Pennsylvania
Current Conditions -  °F | °C
As of 9:51 PM on Monday 26 Jan 2015 (Local Time) from KABE Reporting Station
Overcast Overcast  
Wind Chill: 11°   Ceiling: 3000
Heat Index: 24°   Visibility: 8mi
Dew Point: 17°   Wind: 17mph
Humidity: 75%   Direction: 50°NE
Pressure: 29.77"   Gusts: 24mph
Location:  40.55°N, 75.28°W
Report Text: KABE 270251Z 05015G21KT 8SM OVC030 M04/M08 A2977 RMK AO2 SNE43 SLP087 P0000 60000 T10441083 56013
Loading
Personal Weather Stations






























Interactive Weather Map New forecast layout! Learn more

10-Day Weather Forecast

Advertisements
Track Severe Weather on mobile